Time;durP1;ratioP1;P1;durP2;ratioP2;P2;SDS_P1;SDS_P2;PMS_P1;PMS_P2;Temp;Humidity;BMP_temperature;BMP_pressure;BME280_temperature;BME280_humidity;BME280_pressure;Samples;Min_cycle;Max_cycle;Signal;HPM_P1;HPM_P2
2021/12/22 00:02:24;;;;;;;16.35;7.10;;;;;;;-3.24;85.11;102259.25;1671518;85;21067;-84
2021/12/22 00:04:51;;;;;;;16.23;7.00;;;;;;;-3.25;85.17;102256.50;1671711;85;21529;-83
2021/12/22 00:07:17;;;;;;;13.65;6.55;;;;;;;-3.26;85.18;102254.31;1671703;85;21197;-83
2021/12/22 00:09:46;;;;;;;14.38;6.78;;;;;;;-3.24;85.22;102255.77;1651577;85;21146;-83
2021/12/22 00:12:13;;;;;;;12.53;5.70;;;;;;;-3.24;85.18;102258.34;1671654;85;21796;-83
2021/12/22 00:14:39;;;;;;;13.90;5.95;;;;;;;-3.24;85.14;102257.05;1671727;85;21066;-83
2021/12/22 00:17:06;;;;;;;14.70;6.28;;;;;;;-3.24;85.15;102268.26;1672048;85;21548;-83
2021/12/22 00:19:33;;;;;;;12.82;5.92;;;;;;;-3.22;85.17;102271.00;1671619;85;21195;-83
2021/12/22 00:21:59;;;;;;;11.20;5.35;;;;;;;-3.22;85.10;102264.56;1671681;85;21109;-83
2021/12/22 00:24:27;;;;;;;14.23;6.35;;;;;;;-3.23;85.08;102267.87;1671664;85;21741;-82
2021/12/22 00:26:57;;;;;;;15.55;7.17;;;;;;;-3.24;85.02;102273.41;1671663;85;21079;-82
2021/12/22 00:29:23;;;;;;;14.05;6.95;;;;;;;-3.25;84.99;102271.95;1670846;84;21071;-83
2021/12/22 00:34:51;;;;;;;15.05;7.67;;;;;;;-3.29;84.89;102277.54;1671392;84;21066;-83
2021/12/22 00:37:25;;;;;;;19.92;7.80;;;;;;;-3.33;84.83;102283.64;1645268;85;21694;-83
2021/12/22 00:39:53;;;;;;;16.25;7.67;;;;;;;-3.36;84.77;102283.69;1632421;87;21101;-83
2021/12/22 00:42:20;;;;;;;18.10;7.92;;;;;;;-3.39;84.78;102285.58;1678326;85;21695;-83
2021/12/22 00:44:50;;;;;;;17.02;7.12;;;;;;;-3.40;84.78;102289.28;1678871;85;21154;-83
2021/12/22 00:47:19;;;;;;;16.10;7.60;;;;;;;-3.41;84.85;102295.20;1679044;85;21696;-84
2021/12/22 00:49:47;;;;;;;17.23;8.23;;;;;;;-3.41;84.82;102299.05;1652818;85;21070;-83
2021/12/22 00:52:14;;;;;;;20.85;8.55;;;;;;;-3.43;84.75;102305.33;1678344;85;21069;-83
2021/12/22 00:54:41;;;;;;;17.25;8.15;;;;;;;-3.45;84.85;102297.81;1678583;85;21095;-83
2021/12/22 00:57:09;;;;;;;14.70;7.72;;;;;;;-3.41;84.99;102300.34;1678333;85;21181;-83
2021/12/22 00:59:36;;;;;;;17.67;8.70;;;;;;;-3.34;85.12;102300.22;1678524;85;21672;-83
2021/12/22 01:02:06;;;;;;;18.02;8.13;;;;;;;-3.28;85.21;102303.45;1678460;84;22599;-84
2021/12/22 01:04:33;;;;;;;17.40;7.83;;;;;;;-3.21;85.32;102300.78;1678269;85;21125;-83
2021/12/22 01:06:59;;;;;;;16.60;7.17;;;;;;;-3.12;85.37;102299.52;1678496;84;21485;-83
2021/12/22 01:09:26;;;;;;;12.82;7.00;;;;;;;-3.08;85.28;102299.47;1678809;85;21109;-83
2021/12/22 01:11:53;;;;;;;14.10;7.85;;;;;;;-3.08;85.14;102300.76;1678648;85;21078;-85
2021/12/22 01:14:21;;;;;;;17.62;7.83;;;;;;;-3.09;85.11;102306.30;1678748;85;22508;-84
2021/12/22 01:16:51;;;;;;;13.95;6.72;;;;;;;-3.08;85.12;102305.52;1678523;85;21059;-83
2021/12/22 01:19:24;;;;;;;17.48;7.05;;;;;;;-3.00;85.34;102307.26;1678541;85;21078;-82
2021/12/22 01:21:53;;;;;;;15.00;6.72;;;;;;;-2.88;85.49;102312.77;1678098;85;21060;-82
2021/12/22 01:24:31;;;;;;;13.38;6.12;;;;;;;-2.80;85.50;102304.15;1677914;85;21273;-82
2021/12/22 01:26:56;;;;;;;18.25;7.75;;;;;;;-2.78;85.29;102304.31;1676862;85;21258;-82
2021/12/22 01:29:18;;;;;;;14.23;6.75;;;;;;;-2.79;85.14;102298.26;1678031;85;21145;-83
2021/12/22 01:31:49;;;;;;;18.10;8.00;;;;;;;-2.75;85.27;102299.10;1678998;85;21062;-83
2021/12/22 01:34:15;;;;;;;15.93;7.58;;;;;;;-2.72;85.18;102298.53;1679241;84;21090;-84
2021/12/22 01:36:42;;;;;;;17.77;8.18;;;;;;;-2.78;84.89;102296.58;1681030;85;21031;-84
2021/12/22 01:39:09;;;;;;;16.15;7.08;;;;;;;-2.84;84.76;102296.86;1681071;85;21879;-83
2021/12/22 01:41:36;;;;;;;15.70;7.30;;;;;;;-2.86;84.86;102297.08;1681009;85;21667;-82
2021/12/22 01:44:04;;;;;;;19.45;7.72;;;;;;;-2.84;84.95;102296.86;1681291;85;21612;-82
2021/12/22 01:49:14;;;;;;;17.77;7.70;;;;;;;-2.75;85.25;102301.67;1681625;85;21118;-82
2021/12/22 01:51:59;;;;;;;16.48;7.65;;;;;;;-2.68;85.22;102304.87;1660480;85;21581;-83
2021/12/22 01:54:37;;;;;;;16.87;7.55;;;;;;;-2.65;85.22;102303.92;1681452;85;21078;-82
2021/12/22 01:57:09;;;;;;;16.37;6.97;;;;;;;-2.56;85.28;102307.05;1681478;85;21074;-83
2021/12/22 01:59:32;;;;;;;17.82;7.95;;;;;;;-2.46;85.33;102302.84;1681154;85;21063;-83
2021/12/22 02:02:00;;;;;;;15.88;6.97;;;;;;;-2.38;85.34;102302.88;1681962;84;21082;-83
2021/12/22 02:04:26;;;;;;;15.32;7.85;;;;;;;-2.30;85.26;102304.04;1681845;85;21949;-84
2021/12/22 02:06:53;;;;;;;12.82;6.67;;;;;;;-2.26;85.31;102290.69;1660310;85;21154;-82
2021/12/22 02:11:48;;;;;;;16.10;7.60;;;;;;;-2.21;85.14;102286.53;1626159;85;21090;-82
2021/12/22 02:14:15;;;;;;;18.67;7.60;;;;;;;-2.19;85.00;102290.17;1681655;85;21038;-83
2021/12/22 02:16:42;;;;;;;14.38;7.70;;;;;;;-2.21;84.89;102287.82;1681661;85;22421;-83
2021/12/22 02:19:10;;;;;;;15.63;7.17;;;;;;;-2.21;84.64;102288.20;1682980;84;21548;-82
2021/12/22 02:21:46;;;;;;;14.28;7.10;;;;;;;-2.21;84.67;102284.34;1681400;85;21679;-82
2021/12/22 02:24:08;;;;;;;14.40;6.28;;;;;;;-2.22;84.61;102287.66;1680459;85;21363;-82
2021/12/22 02:26:43;;;;;;;16.32;6.62;;;;;;;-2.25;84.38;102282.17;1681877;85;21070;-83
2021/12/22 02:29:17;;;;;;;14.87;6.53;;;;;;;-2.32;84.24;102287.11;1680982;85;22415;-82
2021/12/22 02:31:44;;;;;;;12.15;5.45;;;;;;;-2.39;84.11;102282.98;1648596;86;21651;-83
2021/12/22 02:34:14;;;;;;;10.98;5.83;;;;;;;-2.48;83.84;102284.63;1648561;86;21280;-83
2021/12/22 02:36:39;;;;;;;10.03;5.37;;;;;;;-2.57;83.81;102285.91;1659940;85;21682;-83
2021/12/22 02:39:05;;;;;;;10.32;5.30;;;;;;;-2.62;83.84;102283.63;1657247;86;21140;-83
2021/12/22 02:41:31;;;;;;;9.55;5.67;;;;;;;-2.67;83.83;102279.27;1659684;86;21961;-83
2021/12/22 02:43:59;;;;;;;13.00;5.20;;;;;;;-2.66;84.01;102286.27;1657871;86;21131;-83
2021/12/22 02:46:30;;;;;;;9.85;5.28;;;;;;;-2.62;84.21;102284.91;1659524;86;21104;-81
2021/12/22 02:48:58;;;;;;;11.93;5.40;;;;;;;-2.58;84.24;102287.94;1658028;86;21143;-83
2021/12/22 02:51:28;;;;;;;11.50;5.25;;;;;;;-2.56;84.16;102283.85;1659772;86;21147;-83
2021/12/22 02:54:08;;;;;;;11.28;5.55;;;;;;;-2.51;84.16;102286.02;1658126;86;22500;-84
2021/12/22 02:56:52;;;;;;;11.88;5.75;;;;;;;-2.47;84.25;102290.72;1657292;86;21160;-82
2021/12/22 03:04:07;;;;;;;14.18;6.60;;;;;;;-2.32;84.44;102293.56;1658089;86;21124;-84
2021/12/22 03:06:38;;;;;;;13.45;6.33;;;;;;;-2.26;84.51;102296.75;1657681;86;21726;-83
2021/12/22 03:09:18;;;;;;;15.78;6.55;;;;;;;-2.21;84.64;102292.98;1639316;86;21513;-83
2021/12/22 03:11:45;;;;;;;14.78;6.37;;;;;;;-2.15;84.69;102291.00;1656650;86;21645;-83
2021/12/22 03:14:12;;;;;;;12.80;5.50;;;;;;;-2.09;84.66;102297.16;1658154;86;21100;-83
2021/12/22 03:16:42;;;;;;;14.05;6.15;;;;;;;-2.04;84.75;102306.28;1658486;86;21076;-84
2021/12/22 03:19:10;;;;;;;15.18;6.17;;;;;;;-2.02;84.67;102303.86;1658017;86;21959;-83
2021/12/22 03:21:41;;;;;;;10.70;4.90;;;;;;;-2.00;84.64;102294.60;1657700;86;21574;-83
2021/12/22 03:24:11;;;;;;;11.97;5.70;;;;;;;-1.95;84.69;102295.98;1658253;86;21115;-83
2021/12/22 03:26:42;;;;;;;14.07;5.67;;;;;;;-1.93;84.58;102297.05;1658093;86;21147;-83
2021/12/22 03:29:10;;;;;;;11.85;5.72;;;;;;;-1.90;84.50;102301.59;1657962;84;21112;-82
2021/12/22 03:31:37;;;;;;;13.20;4.53;;;;;;;-1.88;84.42;102302.27;1657240;86;21824;-82
2021/12/22 03:34:04;;;;;;;11.25;5.05;;;;;;;-1.85;84.41;102300.39;1657684;86;21104;-79
2021/12/22 03:36:30;;;;;;;10.43;4.97;;;;;;;-1.86;84.19;102297.26;1649762;86;21136;-81
2021/12/22 03:39:00;;;;;;;9.15;4.83;;;;;;;-1.85;84.05;102300.00;1643401;87;21272;-82
2021/12/22 03:41:26;;;;;;;9.48;4.45;;;;;;;-1.85;83.82;102305.16;1643317;87;21112;-83
2021/12/22 03:43:53;;;;;;;8.65;4.05;;;;;;;-1.85;83.76;102302.58;1642739;87;22567;-82
2021/12/22 03:46:20;;;;;;;9.58;3.77;;;;;;;-1.86;83.54;102302.06;1642219;87;21140;-82
2021/12/22 03:48:46;;;;;;;6.28;3.35;;;;;;;-1.89;83.29;102299.16;1643153;87;21619;-82
2021/12/22 03:51:13;;;;;;;11.10;3.77;;;;;;;-1.92;83.28;102296.66;1641645;87;21065;-82
2021/12/22 03:53:40;;;;;;;7.20;3.30;;;;;;;-1.96;83.12;102298.02;1642937;86;21117;-81
2021/12/22 03:56:08;;;;;;;8.95;3.58;;;;;;;-2.03;82.89;102302.92;1642239;87;21085;-82
2021/12/22 03:58:35;;;;;;;7.67;3.08;;;;;;;-2.12;82.70;102300.75;1637860;87;21140;-82
2021/12/22 04:01:01;;;;;;;7.83;3.50;;;;;;;-2.22;82.62;102301.84;1681528;85;21125;-84
2021/12/22 04:03:32;;;;;;;9.25;3.35;;;;;;;-2.29;82.56;102301.63;1681615;85;21540;-83
2021/12/22 04:05:57;;;;;;;7.17;3.25;;;;;;;-2.37;82.57;102305.97;1681421;84;21046;-83
2021/12/22 04:08:26;;;;;;;6.33;3.60;;;;;;;-2.44;82.57;102303.91;1681691;85;21770;-84
2021/12/22 04:10:52;;;;;;;8.90;3.65;;;;;;;-2.51;82.60;102304.97;1681261;85;21039;-84
2021/12/22 04:13:22;;;;;;;7.37;3.40;;;;;;;-2.66;82.59;102284.06;1681275;85;21102;-83
2021/12/22 04:15:48;;;;;;;6.90;3.37;;;;;;;-2.63;82.62;102301.12;1681459;85;21026;-83
2021/12/22 04:18:16;;;;;;;6.28;3.40;;;;;;;-2.66;82.80;102303.02;1681558;85;21043;-82
2021/12/22 04:20:46;;;;;;;7.45;3.75;;;;;;;-2.66;82.87;102308.17;1681654;84;21768;-82
2021/12/22 04:23:11;;;;;;;5.47;3.12;;;;;;;-2.66;82.94;102311.13;1680841;84;21843;-82
2021/12/22 04:25:38;;;;;;;6.80;3.20;;;;;;;-2.69;82.93;102309.13;1681415;85;21613;-83
2021/12/22 04:28:09;;;;;;;8.00;3.98;;;;;;;-2.72;82.85;102314.34;1681339;85;21059;-83
2021/12/22 04:30:42;;;;;;;5.40;3.40;;;;;;;-2.74;82.79;102312.54;1681807;85;21628;-82
2021/12/22 04:33:10;;;;;;;6.30;3.27;;;;;;;-2.79;82.61;102308.95;1659310;85;21105;-81
2021/12/22 04:35:37;;;;;;;7.15;2.92;;;;;;;-2.86;82.47;102312.93;1680269;84;21071;-80
2021/12/22 04:38:05;;;;;;;7.03;4.12;;;;;;;-2.92;82.35;102317.07;1680391;85;32987;-81
2021/12/22 04:40:32;;;;;;;9.20;4.35;;;;;;;-2.98;82.35;102328.94;1680414;85;21063;-83
2021/12/22 04:42:58;;;;;;;9.63;5.03;;;;;;;-3.04;82.17;102333.45;1680701;85;21062;-84
2021/12/22 04:45:29;;;;;;;7.40;3.72;;;;;;;-3.10;82.04;102335.75;1680466;85;21764;-83
2021/12/22 04:47:54;;;;;;;7.97;3.77;;;;;;;-3.25;82.03;102318.30;1679600;85;21093;-83
2021/12/22 04:50:21;;;;;;;7.85;4.10;;;;;;;-3.16;82.20;102339.88;1680549;85;21388;-83
2021/12/22 04:55:22;;;;;;;11.18;4.72;;;;;;;-3.13;82.41;102332.48;1680866;85;22370;-83
2021/12/22 04:57:52;;;;;;;9.70;4.70;;;;;;;-3.08;82.46;102332.95;1680600;85;22000;-83
2021/12/22 05:00:17;;;;;;;11.38;5.05;;;;;;;-3.05;82.47;102330.72;1647993;85;21139;-84
2021/12/22 05:02:44;;;;;;;10.95;4.70;;;;;;;-3.06;82.49;102333.67;1670044;85;21605;-84
2021/12/22 05:05:11;;;;;;;9.28;4.28;;;;;;;-3.04;82.45;102327.37;1670205;85;21599;-84
2021/12/22 05:07:42;;;;;;;12.43;4.75;;;;;;;-3.01;82.44;102332.47;1669973;85;21147;-83
2021/12/22 05:10:07;;;;;;;11.73;4.92;;;;;;;-2.99;82.26;102333.92;1647212;85;21817;-83
2021/12/22 05:12:34;;;;;;;11.10;5.47;;;;;;;-3.03;81.99;102328.82;1670442;85;21086;-82
2021/12/22 05:15:01;;;;;;;17.12;8.53;;;;;;;-3.09;81.85;102333.73;1670208;85;21592;-82
2021/12/22 05:18:22;;;;;;;11.40;7.08;;;;;;;-3.17;81.76;102332.92;1670530;85;21090;-81
2021/12/22 05:19:56;;;;;;;15.98;10.48;;;;;;;-3.22;81.77;102335.37;1659529;85;21118;-81
2021/12/22 05:22:24;;;;;;;21.42;9.43;;;;;;;-3.33;81.77;102324.84;1676150;85;21106;-81
2021/12/22 05:24:51;;;;;;;17.67;8.43;;;;;;;-3.30;81.69;102339.73;1670921;85;21782;-84
2021/12/22 05:27:17;;;;;;;17.32;7.85;;;;;;;-3.33;81.75;102335.14;1670970;85;21626;-84
2021/12/22 05:29:44;;;;;;;15.43;7.20;;;;;;;-3.34;81.78;102343.98;1671065;85;21146;-83
2021/12/22 05:32:12;;;;;;;16.07;7.12;;;;;;;-3.35;81.74;102348.61;1670804;85;21090;-83
2021/12/22 05:34:39;;;;;;;16.57;6.65;;;;;;;-3.45;81.62;102331.28;1670798;85;21942;-83
2021/12/22 05:37:07;;;;;;;17.27;7.65;;;;;;;-3.38;81.74;102349.56;1670259;85;21572;-84
2021/12/22 05:39:34;;;;;;;16.85;8.90;;;;;;;-3.35;81.92;102348.23;1649378;85;21102;-86
2021/12/22 05:42:01;;;;;;;24.35;12.10;;;;;;;-3.30;82.00;102350.38;1680610;84;21078;-84
2021/12/22 05:44:28;;;;;;;19.20;9.58;;;;;;;-3.30;81.87;102343.94;1680479;85;21154;-78
2021/12/22 05:46:56;;;;;;;21.52;8.73;;;;;;;-3.31;81.82;102349.47;1679638;84;21125;-84
2021/12/22 05:49:23;;;;;;;23.27;11.25;;;;;;;-3.31;81.69;102340.46;1680096;85;21078;-78
2021/12/22 05:51:55;;;;;;;24.63;11.25;;;;;;;-3.32;81.52;102343.80;1680228;84;21576;-80
2021/12/22 05:54:20;;;;;;;21.37;10.78;;;;;;;-3.31;81.50;102346.90;1679662;84;21625;-83
2021/12/22 05:56:49;;;;;;;17.70;9.18;;;;;;;-3.29;81.61;102350.55;1679983;85;21114;-83
2021/12/22 05:59:21;;;;;;;15.63;9.23;;;;;;;-3.24;81.68;102346.80;1679720;85;23997;-83
2021/12/22 06:01:46;;;;;;;17.65;8.25;;;;;;;-3.19;81.72;102345.63;1679396;85;21106;-82
2021/12/22 06:04:13;;;;;;;13.78;7.40;;;;;;;-3.14;81.76;102352.55;1680369;85;21133;-83
2021/12/22 06:06:41;;;;;;;15.50;7.45;;;;;;;-3.08;81.73;102350.60;1678510;85;21150;-83
2021/12/22 06:09:08;;;;;;;21.95;8.30;;;;;;;-3.04;81.69;102346.34;1652486;85;21091;-83
2021/12/22 06:11:35;;;;;;;23.70;7.85;;;;;;;-2.98;81.73;102353.80;1689306;84;21828;-83
2021/12/22 06:14:01;;;;;;;21.95;8.08;;;;;;;-2.95;81.62;102347.66;1692329;84;21083;-82
2021/12/22 06:16:30;;;;;;;18.75;8.75;;;;;;;-2.93;81.52;102350.02;1692146;84;21097;-83
2021/12/22 06:19:02;;;;;;;16.15;7.10;;;;;;;-2.93;81.42;102352.59;1691532;84;21541;-76
2021/12/22 06:21:30;;;;;;;15.30;6.55;;;;;;;-2.99;81.17;102359.69;1691849;84;21151;-83
2021/12/22 06:23:59;;;;;;;15.43;6.53;;;;;;;-3.06;80.96;102362.02;1692128;84;21036;-83
2021/12/22 06:26:25;;;;;;;14.23;5.97;;;;;;;-3.14;80.84;102364.13;1692541;84;21087;-83
2021/12/22 06:28:55;;;;;;;16.30;6.90;;;;;;;-3.19;80.76;102372.67;1692673;84;21067;-82
2021/12/22 15:52:57;;;;;;;208.47;83.75;;;;;;;-1.57;77.75;102321.72;1714310;81;21105;-79
2021/12/22 15:55:23;;;;;;;211.72;91.65;;;;;;;-1.52;77.80;102316.09;1715105;81;21119;-78
2021/12/22 15:57:50;;;;;;;219.70;91.85;;;;;;;-1.50;77.81;102308.11;1712942;82;21738;-78
2021/12/22 16:00:24;;;;;;;202.05;89.83;;;;;;;-1.48;77.77;102310.45;1710499;82;21665;-79
2021/12/22 16:02:48;;;;;;;188.32;81.55;;;;;;;-1.45;77.96;102309.09;1709861;83;21096;-80
2021/12/22 16:05:15;;;;;;;181.00;80.83;;;;;;;-1.44;77.75;102311.31;1710401;82;21650;-79
2021/12/22 16:07:41;;;;;;;163.75;72.27;;;;;;;-1.42;77.78;102310.69;1710448;82;21096;-80
2021/12/22 16:10:09;;;;;;;145.92;61.37;;;;;;;-1.42;77.74;102299.07;1710280;82;22986;-79
2021/12/22 16:12:38;;;;;;;112.22;50.65;;;;;;;-1.41;77.73;102304.78;1709836;82;21084;-79
2021/12/22 16:15:05;;;;;;;64.75;30.25;;;;;;;-1.40;77.72;102297.94;1710402;82;21093;-77
2021/12/22 16:17:32;;;;;;;70.57;32.53;;;;;;;-1.37;77.62;102304.31;1710268;82;21073;-78
2021/12/22 16:20:01;;;;;;;39.63;19.73;;;;;;;-1.31;77.69;102305.69;1710525;83;21041;-78
2021/12/22 16:22:27;;;;;;;33.38;17.05;;;;;;;-1.27;77.54;102302.24;1710735;82;22449;-84
2021/12/22 16:24:54;;;;;;;31.75;15.38;;;;;;;-1.23;77.45;102300.87;1710368;83;21604;-83
2021/12/22 16:27:21;;;;;;;26.75;13.88;;;;;;;-1.21;77.50;102300.24;1710324;82;21089;-84
2021/12/22 16:29:47;;;;;;;25.32;12.30;;;;;;;-1.18;77.48;102294.48;1710392;82;21108;-83
2021/12/22 16:32:14;;;;;;;29.70;13.18;;;;;;;-1.12;77.56;102292.88;1708403;82;21139;-78
2021/12/22 16:34:40;;;;;;;35.08;17.25;;;;;;;-1.23;77.30;102270.77;1711137;83;21947;-79
2021/12/22 16:37:07;;;;;;;40.90;18.65;;;;;;;-1.13;77.26;102286.77;1710350;83;21140;-84
2021/12/22 16:39:34;;;;;;;45.38;21.82;;;;;;;-1.11;77.18;102286.92;1719098;83;21107;-84
2021/12/22 16:42:01;;;;;;;65.42;33.20;;;;;;;-1.10;77.38;102282.30;1718893;83;21206;-85
2021/12/22 16:44:28;;;;;;;78.70;36.17;;;;;;;-1.09;77.24;102276.35;1719372;83;21710;-84
2021/12/22 16:46:55;;;;;;;76.42;39.05;;;;;;;-1.08;77.42;102272.62;1719103;83;22346;-84
2021/12/22 16:49:22;;;;;;;65.37;32.28;;;;;;;-1.05;77.49;102274.23;1718585;83;21086;-84
2021/12/22 16:51:49;;;;;;;57.38;29.98;;;;;;;-1.03;77.55;102266.23;1718825;83;21113;-84
2021/12/22 16:54:16;;;;;;;60.12;30.17;;;;;;;-1.00;77.61;102272.97;1719154;83;21082;-84
2021/12/22 16:56:43;;;;;;;43.68;21.57;;;;;;;-0.96;77.56;102269.39;1718685;83;21101;-77
2021/12/22 16:59:09;;;;;;;33.25;17.25;;;;;;;-0.95;77.49;102260.50;1718904;83;21749;-85
2021/12/22 17:01:36;;;;;;;33.28;15.58;;;;;;;-0.91;77.47;102262.61;1718942;83;21124;-84
2021/12/22 17:04:03;;;;;;;31.80;19.60;;;;;;;-0.90;77.37;102262.22;1719116;83;21233;-85
2021/12/22 17:06:39;;;;;;;24.75;15.13;;;;;;;-0.89;77.52;102253.33;1718701;83;21174;-85
2021/12/22 17:08:59;;;;;;;32.25;16.82;;;;;;;-0.86;77.41;102253.63;1718583;83;21090;-84
2021/12/22 17:11:25;;;;;;;26.82;15.23;;;;;;;-0.84;77.37;102249.90;1718881;83;22566;-85
2021/12/22 17:13:52;;;;;;;33.10;16.50;;;;;;;-0.84;77.34;102248.22;1718821;83;21069;-84
2021/12/22 17:16:19;;;;;;;26.48;14.85;;;;;;;-0.82;77.29;102252.25;1718934;83;21066;-84
2021/12/22 17:18:45;;;;;;;23.30;13.10;;;;;;;-0.84;77.29;102255.07;1718981;83;21062;-84
2021/12/22 17:21:12;;;;;;;23.73;13.95;;;;;;;-0.84;77.30;102256.36;1719084;83;21078;-84
2021/12/22 17:23:39;;;;;;;25.52;14.68;;;;;;;-0.86;77.25;102259.19;1718917;83;21756;-77
2021/12/22 17:26:05;;;;;;;17.82;9.93;;;;;;;-0.88;77.30;102258.10;1718819;83;21154;-77
2021/12/22 17:28:36;;;;;;;17.10;9.75;;;;;;;-0.88;77.24;102260.69;1718861;83;21093;-77
2021/12/22 17:31:04;;;;;;;18.80;11.40;;;;;;;-0.87;77.33;102257.35;1719219;83;21070;-80
2021/12/22 17:33:31;;;;;;;16.45;9.65;;;;;;;-0.85;77.32;102251.94;1719526;83;21054;-77
2021/12/22 17:35:58;;;;;;;16.17;10.00;;;;;;;-0.85;77.32;102248.06;1718905;83;23014;-77
2021/12/22 17:38:24;;;;;;;19.77;11.80;;;;;;;-0.87;77.30;102250.50;1719109;83;21082;-77
2021/12/22 17:40:52;;;;;;;12.55;8.20;;;;;;;-0.87;77.39;102249.59;1719148;83;21058;-84
2021/12/22 17:43:19;;;;;;;14.30;8.30;;;;;;;-0.88;77.51;102249.05;1719291;83;21074;-84
2021/12/22 17:45:46;;;;;;;16.97;9.55;;;;;;;-0.87;77.60;102253.08;1719316;83;21169;-84
2021/12/22 17:48:13;;;;;;;12.43;7.95;;;;;;;-0.86;77.66;102243.67;1719225;83;21713;-85
2021/12/22 17:50:40;;;;;;;13.58;7.62;;;;;;;-0.84;77.83;102244.73;1718670;83;21087;-85
2021/12/22 17:53:07;;;;;;;14.30;8.03;;;;;;;-0.83;77.89;102240.97;1711223;82;21051;-84
2021/12/22 17:55:35;;;;;;;21.85;13.70;;;;;;;-0.83;77.91;102241.36;1708781;82;21498;-77
2021/12/22 17:58:06;;;;;;;13.65;9.63;;;;;;;-0.85;77.96;102238.62;1708622;83;21097;-77
2021/12/22 18:00:33;;;;;;;12.65;8.45;;;;;;;-0.85;78.09;102241.20;1690887;82;21761;-78
2021/12/22 18:02:59;;;;;;;18.82;12.82;;;;;;;-0.86;78.17;102236.82;1663785;85;21146;-85
2021/12/22 18:05:28;;;;;;;13.20;9.48;;;;;;;-0.89;78.16;102231.74;1669192;84;21686;-83
2021/12/22 18:07:55;;;;;;;18.17;11.93;;;;;;;-0.92;78.30;102228.50;1663020;85;21193;-82
2021/12/22 18:10:23;;;;;;;13.95;9.55;;;;;;;-0.90;78.42;102226.03;1671875;85;21599;-84
2021/12/22 18:12:52;;;;;;;20.92;10.93;;;;;;;-0.90;78.55;102224.38;1638327;86;21876;-83
2021/12/22 18:15:19;;;;;;;15.72;9.50;;;;;;;-0.90;78.68;102216.98;1661167;86;21113;-86
2021/12/22 18:17:45;;;;;;;18.05;10.80;;;;;;;-0.89;78.73;102219.72;1656177;84;21077;-84
2021/12/22 18:20:12;;;;;;;25.17;13.00;;;;;;;-0.89;78.82;102218.81;1656907;85;21204;-84
2021/12/22 18:22:39;;;;;;;24.27;13.10;;;;;;;-0.87;78.98;102212.11;1665957;86;21537;-85
2021/12/22 18:25:07;;;;;;;26.30;13.38;;;;;;;-0.83;79.17;102207.36;1660783;86;21784;-86
2021/12/22 18:27:34;;;;;;;25.85;12.45;;;;;;;-0.81;79.25;102208.45;1660483;84;21094;-79
2021/12/22 18:30:03;;;;;;;25.97;12.88;;;;;;;-0.77;79.33;102207.02;1663907;86;21081;-79
2021/12/22 18:32:29;;;;;;;23.73;12.00;;;;;;;-0.78;79.30;102207.81;1658850;84;21083;-78
2021/12/22 18:34:57;;;;;;;28.20;14.43;;;;;;;-0.79;79.42;102201.73;1662817;85;21074;-78
2021/12/22 18:37:28;;;;;;;30.88;14.87;;;;;;;-0.76;79.52;102201.10;1662031;85;21835;-77
2021/12/22 18:39:55;;;;;;;23.25;13.43;;;;;;;-0.75;79.45;102203.30;1658326;85;21125;-78
2021/12/22 18:42:20;;;;;;;27.13;14.47;;;;;;;-0.73;79.56;102204.34;1662927;84;21563;-77
2021/12/22 18:44:47;;;;;;;26.93;13.20;;;;;;;-0.71;79.60;102201.16;1662363;85;21516;-78
2021/12/22 18:47:16;;;;;;;26.12;13.88;;;;;;;-0.72;79.54;102203.59;1664544;84;21028;-79
2021/12/22 18:49:42;;;;;;;18.55;10.93;;;;;;;-0.73;79.63;102192.72;1661983;84;21806;-78
2021/12/22 18:52:09;;;;;;;26.90;13.15;;;;;;;-0.71;79.76;102190.82;1644997;86;21009;-84
2021/12/22 18:54:36;;;;;;;25.95;13.10;;;;;;;-0.68;79.83;102196.25;1691651;83;21694;-85
2021/12/22 18:57:06;;;;;;;27.10;15.05;;;;;;;-0.69;79.81;102187.98;1693066;83;21139;-85
2021/12/22 18:59:34;;;;;;;31.80;16.07;;;;;;;-0.69;79.85;102187.09;1693716;84;21077;-79
2021/12/22 19:02:00;;;;;;;35.83;18.07;;;;;;;-0.70;79.92;102188.73;1692766;82;21736;-80
2021/12/22 19:04:32;;;;;;;34.33;17.98;;;;;;;-0.68;79.97;102178.55;1691749;83;21073;-80
2021/12/22 19:07:01;;;;;;;31.23;16.80;;;;;;;-0.64;80.07;102176.77;1719373;83;21062;-80
2021/12/22 19:09:27;;;;;;;27.87;14.87;;;;;;;-0.65;79.97;102175.86;1679709;84;22733;-81
2021/12/22 19:11:54;;;;;;;34.95;16.62;;;;;;;-0.65;80.04;102174.57;1680078;85;21099;-77
2021/12/22 19:14:21;;;;;;;38.45;19.23;;;;;;;-0.67;80.01;102173.91;1680857;84;21769;-77
2021/12/22 19:16:48;;;;;;;35.20;19.10;;;;;;;-0.67;80.04;102163.18;1680813;85;21775;-84
2021/12/22 19:19:14;;;;;;;37.65;19.52;;;;;;;-0.68;80.04;102162.64;1680887;84;21078;-83
2021/12/22 19:21:44;;;;;;;31.95;17.77;;;;;;;-0.71;80.08;102164.03;1680519;84;21542;-78
2021/12/22 19:24:11;;;;;;;34.92;18.95;;;;;;;-0.72;80.18;102163.13;1680945;84;21141;-79
2021/12/22 19:26:38;;;;;;;30.32;17.98;;;;;;;-0.72;80.17;102153.17;1680966;84;21789;-78
2021/12/22 19:29:05;;;;;;;31.50;17.90;;;;;;;-0.73;80.17;102148.76;1680900;85;21082;-78
2021/12/22 19:31:31;;;;;;;31.87;17.92;;;;;;;-0.73;80.26;102147.11;1680545;84;21090;-78
2021/12/22 19:33:58;;;;;;;38.33;19.98;;;;;;;-0.72;80.29;102139.86;1679409;85;21563;-77
2021/12/22 19:36:27;;;;;;;47.05;23.30;;;;;;;-0.71;80.32;102133.00;1679393;84;21078;-78
2021/12/22 19:38:53;;;;;;;55.05;29.02;;;;;;;-0.71;80.38;102131.70;1679428;85;22817;-84
2021/12/22 19:41:20;;;;;;;60.33;30.32;;;;;;;-0.71;80.42;102132.64;1679474;84;21090;-84
2021/12/22 19:43:48;;;;;;;73.05;34.48;;;;;;;-0.72;80.40;102126.03;1679433;84;21090;-79
2021/12/22 19:46:15;;;;;;;47.93;25.62;;;;;;;-0.71;80.50;102130.41;1679498;84;21114;-86
2021/12/22 19:48:41;;;;;;;44.48;23.52;;;;;;;-0.73;80.41;102131.59;1679554;84;21258;-83
2021/12/22 19:51:08;;;;;;;45.70;23.60;;;;;;;-0.76;80.38;102121.34;1679651;85;21763;-79
2021/12/22 19:53:35;;;;;;;43.15;22.17;;;;;;;-0.76;80.52;102113.20;1672732;84;21082;-78
2021/12/22 19:56:01;;;;;;;41.08;22.00;;;;;;;-0.76;80.55;102122.64;1669143;85;21587;-81
2021/12/22 19:58:28;;;;;;;48.48;25.05;;;;;;;-0.75;80.60;102120.56;1642196;85;22638;-79
2021/12/22 20:00:55;;;;;;;47.17;26.00;;;;;;;-0.75;80.64;102113.74;1669537;85;21153;-83
2021/12/22 20:03:23;;;;;;;41.77;22.93;;;;;;;-0.74;80.66;102109.47;1669590;85;22598;-83
2021/12/22 20:05:49;;;;;;;36.63;20.30;;;;;;;-0.73;80.64;102108.68;1669707;85;21126;-83
2021/12/22 20:08:22;;;;;;;41.33;22.35;;;;;;;-0.73;80.70;102111.27;1669474;85;21106;-84
2021/12/22 20:10:56;;;;;;;50.65;24.82;;;;;;;-0.73;80.79;102108.33;1669323;85;21091;-83
2021/12/22 20:13:23;;;;;;;44.90;23.52;;;;;;;-0.73;80.78;102104.45;1669387;85;21695;-77
2021/12/22 20:15:49;;;;;;;44.40;21.77;;;;;;;-0.75;80.78;102103.39;1669211;85;21775;-78
2021/12/22 20:18:16;;;;;;;45.78;23.32;;;;;;;-0.74;80.87;102103.00;1669308;85;21180;-78
2021/12/22 20:20:43;;;;;;;46.77;23.55;;;;;;;-0.73;80.86;102102.22;1669812;85;21668;-85
2021/12/22 20:23:09;;;;;;;45.50;22.55;;;;;;;-0.74;80.76;102097.83;1669694;85;21024;-78
2021/12/22 20:25:37;;;;;;;43.80;22.55;;;;;;;-0.76;80.89;102098.98;1669212;85;21115;-81
2021/12/22 20:28:04;;;;;;;45.08;24.67;;;;;;;-0.74;80.91;102096.15;1669907;85;21799;-86
2021/12/22 20:30:35;;;;;;;43.68;23.15;;;;;;;-0.75;80.94;102094.70;1670056;84;21085;-86
2021/12/22 20:33:03;;;;;;;42.43;23.02;;;;;;;-0.76;80.93;102092.52;1670870;85;21084;-78
2021/12/22 20:35:41;;;;;;;44.00;24.77;;;;;;;-0.74;81.04;102090.98;1670616;85;21156;-77
2021/12/22 20:38:10;;;;;;;44.88;23.80;;;;;;;-0.73;81.05;102085.41;1670370;85;21108;-77
2021/12/22 20:40:40;;;;;;;43.08;24.45;;;;;;;-0.73;81.04;102079.88;1670786;85;21758;-77
2021/12/22 20:43:11;;;;;;;39.67;22.80;;;;;;;-0.73;81.10;102077.30;1670455;85;21621;-79
2021/12/22 20:45:44;;;;;;;40.35;23.55;;;;;;;-0.72;81.15;102078.20;1670586;85;21596;-77
2021/12/22 20:48:10;;;;;;;43.80;25.95;;;;;;;-0.73;81.15;102073.42;1670755;84;21048;-85
2021/12/22 20:50:38;;;;;;;43.08;24.23;;;;;;;-0.73;81.11;102069.54;1670734;84;21084;-77
2021/12/22 20:53:05;;;;;;;48.13;28.00;;;;;;;-0.78;81.07;102063.03;1669978;85;21798;-77
2021/12/22 20:55:32;;;;;;;54.93;30.70;;;;;;;-0.73;81.19;102071.19;1668212;85;21095;-77